createdAt,value
2018-08-07T00:00:18.534Z,3.90
2018-08-07T00:02:47.767Z,4.60
2018-08-07T00:05:16.433Z,3.93
2018-08-07T00:07:45.516Z,3.47
2018-08-07T00:10:14.641Z,5.20
2018-08-07T00:12:43.803Z,3.97
2018-08-07T00:15:12.938Z,3.67
2018-08-07T00:17:41.435Z,4.10
2018-08-07T00:20:11.512Z,4.30
2018-08-07T00:22:39.722Z,5.17
2018-08-07T00:25:08.908Z,4.87
2018-08-07T00:27:37.469Z,4.47
2018-08-07T00:30:07.056Z,4.60
2018-08-07T00:32:35.473Z,4.03
2018-08-07T00:35:03.645Z,5.00
2018-08-07T00:37:31.880Z,5.10
2018-08-07T00:39:59.894Z,4.40
2018-08-07T00:42:28.092Z,4.40
2018-08-07T00:44:56.291Z,5.20
2018-08-07T00:47:24.459Z,4.43
2018-08-07T00:49:52.654Z,4.80
2018-08-07T00:52:20.595Z,4.77
2018-08-07T00:54:48.763Z,4.70
2018-08-07T00:57:16.940Z,4.87
2018-08-07T00:59:45.140Z,4.57
2018-08-07T01:02:13.082Z,5.03
2018-08-07T01:04:41.316Z,4.50
2018-08-07T01:07:09.507Z,4.60
2018-08-07T01:09:37.695Z,4.70
2018-08-07T01:12:06.091Z,4.07
2018-08-07T01:14:34.327Z,4.63
2018-08-07T01:17:02.515Z,4.20
2018-08-07T01:19:30.719Z,4.53
2018-08-07T01:21:58.907Z,4.63
2018-08-07T01:24:26.864Z,5.23
2018-08-07T01:26:54.816Z,4.60
2018-08-07T01:29:22.993Z,4.70
2018-08-07T01:31:51.185Z,4.60
2018-08-07T01:34:19.118Z,4.03
2018-08-07T01:36:47.363Z,4.73
2018-08-07T01:39:15.525Z,4.23
2018-08-07T01:41:43.751Z,4.70
2018-08-07T01:44:11.936Z,4.27
2018-08-07T01:46:39.938Z,4.20
2018-08-07T01:49:08.130Z,3.93
2018-08-07T01:51:36.312Z,3.77
2018-08-07T01:54:04.600Z,4.30
2018-08-07T01:56:32.840Z,4.53
2018-08-07T01:59:01.007Z,4.20
2018-08-07T02:01:29.171Z,4.43
2018-08-07T02:03:57.391Z,4.70
2018-08-07T02:06:25.588Z,4.90
2018-08-07T02:08:53.763Z,4.90
2018-08-07T02:11:21.958Z,4.23
2018-08-07T02:13:50.143Z,4.60
2018-08-07T02:16:18.359Z,4.30
2018-08-07T02:18:46.560Z,4.20
2018-08-07T02:21:14.739Z,4.20
2018-08-07T02:23:42.930Z,4.03
2018-08-07T02:26:10.866Z,4.30
2018-08-07T02:28:39.039Z,4.63
2018-08-07T02:31:07.228Z,4.60
2018-08-07T02:33:35.397Z,4.70
2018-08-07T02:36:03.579Z,4.53
2018-08-07T02:38:31.731Z,4.57
2018-08-07T02:40:59.924Z,5.00
2018-08-07T02:43:28.096Z,4.30
2018-08-07T02:45:56.284Z,5.23
2018-08-07T02:48:24.207Z,5.67
2018-08-07T02:50:52.387Z,5.30
2018-08-07T02:53:20.593Z,4.47
2018-08-07T02:55:48.792Z,5.63
2018-08-07T02:58:16.968Z,5.03
2018-08-07T03:00:45.170Z,5.03
2018-08-07T03:03:13.359Z,4.10
2018-08-07T03:05:41.607Z,4.27
2018-08-07T03:08:09.756Z,4.50
2018-08-07T03:10:37.942Z,4.93
2018-08-07T03:13:06.163Z,4.53
2018-08-07T03:15:34.366Z,4.57
2018-08-07T03:18:02.323Z,4.97
2018-08-07T03:20:30.514Z,4.60
2018-08-07T03:22:58.451Z,4.80
2018-08-07T03:25:26.624Z,4.70
2018-08-07T03:27:54.804Z,5.00
2018-08-07T03:30:22.995Z,5.17
2018-08-07T03:32:50.918Z,4.50
2018-08-07T03:35:19.123Z,4.73
2018-08-07T03:37:47.311Z,4.80
2018-08-07T03:40:18.314Z,4.93
2018-08-07T03:42:46.528Z,5.20
2018-08-07T03:45:15.647Z,4.97
2018-08-07T03:47:44.629Z,5.57
2018-08-07T03:50:12.829Z,4.43
2018-08-07T03:52:41.021Z,4.77
2018-08-07T03:55:12.727Z,5.43
2018-08-07T03:57:41.641Z,4.30
2018-08-07T04:00:12.352Z,4.43
2018-08-07T04:02:40.557Z,4.60
2018-08-07T04:05:08.809Z,4.83
2018-08-07T04:07:37.491Z,5.13
2018-08-07T04:10:07.631Z,5.30
2018-08-07T04:12:35.851Z,5.20
2018-08-07T04:15:04.440Z,5.63
2018-08-07T04:17:32.636Z,4.40
2018-08-07T04:20:00.820Z,5.60
2018-08-07T04:22:29.002Z,5.23
2018-08-07T04:24:57.312Z,5.13
2018-08-07T04:27:25.508Z,4.73
2018-08-07T04:29:53.686Z,5.47
2018-08-07T04:32:21.872Z,5.27
2018-08-07T04:34:49.815Z,5.60
2018-08-07T04:37:18.055Z,5.40
2018-08-07T04:39:46.327Z,5.57
2018-08-07T04:42:14.533Z,5.90
2018-08-07T04:44:42.752Z,5.83
2018-08-07T04:47:10.952Z,5.83
2018-08-07T04:49:39.123Z,5.47
2018-08-07T04:52:07.317Z,5.83
2018-08-07T04:54:35.506Z,6.33
2018-08-07T04:57:03.703Z,5.60
2018-08-07T04:59:31.660Z,5.37
2018-08-07T05:01:59.814Z,5.17
2018-08-07T05:04:28.016Z,5.20
2018-08-07T05:06:56.206Z,6.30
2018-08-07T05:09:24.429Z,5.00
2018-08-07T05:11:52.624Z,5.30
2018-08-07T05:14:20.867Z,4.30
2018-08-07T05:16:49.024Z,5.50
2018-08-07T05:19:17.215Z,5.40
2018-08-07T05:21:45.394Z,5.50
2018-08-07T05:24:13.570Z,5.00
2018-08-07T05:26:41.759Z,4.87
2018-08-07T05:29:10.086Z,5.10
2018-08-07T05:31:38.288Z,4.57
2018-08-07T05:34:06.507Z,5.63
2018-08-07T05:36:34.528Z,5.43
2018-08-07T05:39:02.829Z,5.13
2018-08-07T05:41:31.029Z,5.00
2018-08-07T05:43:59.202Z,5.20
2018-08-07T05:46:27.261Z,4.40
2018-08-07T05:48:55.459Z,5.17
2018-08-07T05:51:23.738Z,4.73
2018-08-07T05:53:51.875Z,4.73
2018-08-07T05:56:20.113Z,5.07
2018-08-07T05:58:48.315Z,5.57
2018-08-07T06:01:16.501Z,4.23
2018-08-07T06:03:44.741Z,4.60
2018-08-07T06:06:13.019Z,4.67
2018-08-07T06:08:41.217Z,5.07
2018-08-07T06:11:09.403Z,4.67
2018-08-07T06:13:37.613Z,4.83
2018-08-07T06:16:06.032Z,4.97
2018-08-07T06:18:34.224Z,4.30
2018-08-07T06:21:02.405Z,4.80
2018-08-07T06:23:30.587Z,4.33
2018-08-07T06:25:58.590Z,5.17
2018-08-07T06:28:26.756Z,5.13
2018-08-07T06:30:54.948Z,5.10
2018-08-07T06:33:23.223Z,4.00
2018-08-07T06:35:51.609Z,4.03
2018-08-07T06:38:19.800Z,4.50
2018-08-07T06:40:47.984Z,5.17
2018-08-07T06:43:16.188Z,4.87
2018-08-07T06:45:44.211Z,3.57
2018-08-07T06:48:12.397Z,4.60
2018-08-07T06:50:40.608Z,4.37
2018-08-07T06:53:08.531Z,4.10
2018-08-07T06:55:36.843Z,4.87
2018-08-07T06:58:04.799Z,3.40
2018-08-07T07:00:32.991Z,4.40
2018-08-07T07:03:00.923Z,3.87
2018-08-07T07:05:29.188Z,4.93
2018-08-07T07:07:57.368Z,4.37
2018-08-07T07:10:25.579Z,4.07
2018-08-07T07:12:53.520Z,4.20
2018-08-07T07:15:21.758Z,4.17
2018-08-07T07:17:49.959Z,4.27
2018-08-07T07:20:18.903Z,3.47
2018-08-07T07:22:48.072Z,3.80
2018-08-07T07:25:16.424Z,4.47
2018-08-07T07:27:44.607Z,3.43
2018-08-07T07:30:16.631Z,3.43
2018-08-07T07:32:46.152Z,3.33
2018-08-07T07:35:15.027Z,3.03
2018-08-07T07:37:43.242Z,4.17
2018-08-07T07:40:11.447Z,3.20
2018-08-07T07:42:39.388Z,4.00
2018-08-07T07:45:09.639Z,3.77
2018-08-07T07:47:38.443Z,3.33
2018-08-07T07:50:09.254Z,3.53
2018-08-07T07:52:37.534Z,3.27
2018-08-07T07:55:05.972Z,4.03
2018-08-07T07:57:34.148Z,3.70
2018-08-07T08:00:02.368Z,4.00
2018-08-07T08:02:30.556Z,3.80
2018-08-07T08:04:58.816Z,3.53
2018-08-07T08:07:26.768Z,3.80
2018-08-07T08:09:54.962Z,3.53
2018-08-07T08:12:22.888Z,4.43
2018-08-07T08:14:51.103Z,3.80
2018-08-07T08:17:19.319Z,4.10
2018-08-07T08:19:47.511Z,3.47
2018-08-07T08:22:15.748Z,3.40
2018-08-07T08:24:43.937Z,3.00
2018-08-07T08:27:12.124Z,3.60
2018-08-07T08:29:40.321Z,3.90
2018-08-07T08:32:08.499Z,4.27
2018-08-07T08:34:36.713Z,4.57
2018-08-07T08:37:04.918Z,4.00
2018-08-07T08:39:33.103Z,4.37
2018-08-07T08:42:01.291Z,4.23
2018-08-07T08:44:29.483Z,3.60
2018-08-07T08:46:57.436Z,3.50
2018-08-07T08:49:25.952Z,3.00
2018-08-07T08:51:54.216Z,4.60
2018-08-07T08:54:22.459Z,3.50
2018-08-07T08:56:50.664Z,4.83
2018-08-07T08:59:18.836Z,4.50
2018-08-07T09:01:47.017Z,3.40
2018-08-07T09:04:15.227Z,3.17
2018-08-07T09:06:43.424Z,3.17
2018-08-07T09:09:13.162Z,4.63
2018-08-07T09:11:41.132Z,3.47
2018-08-07T09:14:10.076Z,3.07
2018-08-07T09:16:39.011Z,3.03
2018-08-07T09:19:07.220Z,2.43
2018-08-07T09:21:35.788Z,2.70
2018-08-07T09:24:03.976Z,3.30
2018-08-07T09:26:32.284Z,2.83
2018-08-07T09:29:00.556Z,3.57
2018-08-07T09:31:28.806Z,2.80
2018-08-07T09:33:57.147Z,3.20
2018-08-07T09:36:25.374Z,2.23
2018-08-07T09:38:53.565Z,2.80
2018-08-07T09:41:21.783Z,3.30
2018-08-07T09:43:49.970Z,3.03
2018-08-07T09:46:18.192Z,3.20
2018-08-07T09:48:46.456Z,2.73
2018-08-07T09:51:14.628Z,2.70
2018-08-07T09:53:42.878Z,2.53
2018-08-07T09:56:11.120Z,2.73
2018-08-07T09:58:39.264Z,3.03
2018-08-07T10:01:12.518Z,2.70
2018-08-07T10:03:40.700Z,3.37
2018-08-07T10:06:08.896Z,3.00
2018-08-07T10:08:37.078Z,3.30
2018-08-07T10:11:05.296Z,2.80
2018-08-07T10:13:33.546Z,3.40
2018-08-07T10:16:01.724Z,3.20
2018-08-07T10:18:29.665Z,2.80
2018-08-07T10:20:57.859Z,3.30
2018-08-07T10:23:25.929Z,2.80
2018-08-07T10:25:53.979Z,3.10
2018-08-07T10:28:22.172Z,3.00
2018-08-07T10:30:50.124Z,3.40
2018-08-07T10:33:18.314Z,2.97
2018-08-07T10:35:46.261Z,3.23
2018-08-07T10:38:14.464Z,3.00
2018-08-07T10:40:42.460Z,2.93
2018-08-07T10:43:10.692Z,2.37
2018-08-07T10:45:38.848Z,2.60
2018-08-07T10:48:07.027Z,2.90
2018-08-07T10:50:35.220Z,3.07
2018-08-07T10:53:03.148Z,2.70
2018-08-07T10:55:31.377Z,2.87
2018-08-07T10:58:00.254Z,3.27
2018-08-07T11:00:29.694Z,2.80
2018-08-07T11:02:58.552Z,2.80
2018-08-07T11:05:27.344Z,2.63
2018-08-07T11:07:55.548Z,3.57
2018-08-07T11:10:24.114Z,3.70
2018-08-07T11:12:52.664Z,3.27
2018-08-07T11:15:33.256Z,2.73
2018-08-07T11:18:01.692Z,2.70
2018-08-07T11:20:29.925Z,3.60
2018-08-07T11:22:59.503Z,3.57
2018-08-07T11:25:28.429Z,2.83
2018-08-07T11:27:56.649Z,3.07
2018-08-07T11:30:25.907Z,3.30
2018-08-07T11:32:55.076Z,3.37
2018-08-07T11:35:24.103Z,2.47
2018-08-07T11:37:53.475Z,3.47
2018-08-07T11:40:22.863Z,2.50
2018-08-07T11:42:51.756Z,2.47
2018-08-07T11:45:21.936Z,2.87
2018-08-07T11:47:50.159Z,2.43
2018-08-07T11:50:19.411Z,2.50
2018-08-07T11:52:47.706Z,2.30
2018-08-07T11:55:16.926Z,3.07
2018-08-07T11:57:45.167Z,2.80
2018-08-07T12:00:16.971Z,2.50
2018-08-07T12:02:45.432Z,2.90
2018-08-07T12:05:13.644Z,2.53
2018-08-07T12:07:41.852Z,2.60
2018-08-07T12:10:11.192Z,2.30
2018-08-07T12:12:40.019Z,2.80
2018-08-07T12:15:10.004Z,2.80
2018-08-07T12:17:38.508Z,2.67
2018-08-07T12:20:06.880Z,3.00
2018-08-07T12:22:35.076Z,2.50
2018-08-07T12:25:03.387Z,3.07
2018-08-07T12:27:31.704Z,2.40
2018-08-07T12:29:59.976Z,2.57
2018-08-07T12:32:28.162Z,2.63
2018-08-07T12:34:56.370Z,3.17
2018-08-07T12:37:24.541Z,2.83
2018-08-07T12:39:52.740Z,2.87
2018-08-07T12:42:20.727Z,2.50
2018-08-07T12:44:48.926Z,3.40
2018-08-07T12:47:17.112Z,2.90
2018-08-07T12:49:45.275Z,2.50
2018-08-07T12:52:13.459Z,2.90
2018-08-07T12:54:41.633Z,2.27
2018-08-07T12:57:09.860Z,2.77
2018-08-07T12:59:38.060Z,2.60
2018-08-07T13:02:06.308Z,2.30
2018-08-07T13:04:34.251Z,3.30
2018-08-07T13:07:02.461Z,2.90
2018-08-07T13:09:30.675Z,2.40
2018-08-07T13:11:58.864Z,3.03
2018-08-07T13:14:27.058Z,2.90
2018-08-07T13:16:55.003Z,3.00
2018-08-07T13:19:23.179Z,2.67
2018-08-07T13:21:51.412Z,2.97
2018-08-07T13:24:19.595Z,2.63
2018-08-07T13:26:47.765Z,2.93
2018-08-07T13:29:15.933Z,3.10
2018-08-07T13:31:44.110Z,3.30
2018-08-07T13:34:12.334Z,2.50
2018-08-07T13:36:40.511Z,3.03
2018-08-07T13:39:09.139Z,2.63
2018-08-07T13:41:37.381Z,2.47
2018-08-07T13:44:06.457Z,2.47
2018-08-07T13:46:34.647Z,2.20
2018-08-07T13:49:02.646Z,2.40
2018-08-07T13:51:30.823Z,3.20
2018-08-07T13:53:59.016Z,2.60
2018-08-07T13:56:27.209Z,2.77
2018-08-07T13:58:55.412Z,2.50
2018-08-07T14:01:23.347Z,2.70
2018-08-07T14:03:51.692Z,2.60
2018-08-07T14:06:19.968Z,2.83
2018-08-07T14:08:48.156Z,2.10
2018-08-07T14:11:16.339Z,2.43
2018-08-07T14:13:44.517Z,2.57
2018-08-07T14:16:12.716Z,2.47
2018-08-07T14:18:40.931Z,3.20
2018-08-07T14:21:09.108Z,2.67
2018-08-07T14:23:37.381Z,2.67
2018-08-07T14:26:05.819Z,2.53
2018-08-07T14:28:34.068Z,2.40
2018-08-07T14:31:02.277Z,2.23
2018-08-07T14:33:30.220Z,2.37
2018-08-07T14:35:58.428Z,2.83
2018-08-07T14:38:26.632Z,2.07
2018-08-07T14:40:54.820Z,2.90
2018-08-07T14:43:23.012Z,1.87
2018-08-07T14:45:51.200Z,2.40
2018-08-07T14:48:19.383Z,2.43
2018-08-07T14:50:47.320Z,2.30
2018-08-07T14:53:15.507Z,2.23
2018-08-07T14:55:43.724Z,2.30
2018-08-07T14:58:11.933Z,2.13
2018-08-07T15:00:40.107Z,2.60
2018-08-07T15:03:08.529Z,2.30
2018-08-07T15:05:36.475Z,1.90
2018-08-07T15:08:04.951Z,2.63
2018-08-07T15:10:33.184Z,3.40
2018-08-07T15:13:01.367Z,2.60
2018-08-07T15:15:31.238Z,2.43
2018-08-07T15:17:59.232Z,3.10
2018-08-07T15:20:28.992Z,2.80
2018-08-07T15:22:57.595Z,3.07
2018-08-07T15:25:25.813Z,2.77
2018-08-07T15:27:54.029Z,3.00
2018-08-07T15:30:26.095Z,2.57
2018-08-07T15:32:54.712Z,2.80
2018-08-07T15:35:24.567Z,3.23
2018-08-07T15:37:52.652Z,3.30
2018-08-07T15:40:21.180Z,3.17
2018-08-07T15:42:49.380Z,2.77
2018-08-07T15:45:45.133Z,2.60
2018-08-07T15:48:13.364Z,3.27
2018-08-07T15:50:41.567Z,2.20
2018-08-07T15:53:09.745Z,2.53
2018-08-07T15:55:37.988Z,2.93
2018-08-07T15:58:06.209Z,2.83
2018-08-07T16:00:34.415Z,2.57
2018-08-07T16:03:04.064Z,2.43
2018-08-07T16:05:32.472Z,3.00
2018-08-07T16:08:00.686Z,2.80
2018-08-07T16:10:28.920Z,3.13
2018-08-07T16:12:57.162Z,3.13
2018-08-07T16:15:25.424Z,2.70
2018-08-07T16:17:54.144Z,3.03
2018-08-07T16:20:22.764Z,3.00
2018-08-07T16:22:50.991Z,3.17
2018-08-07T16:25:20.144Z,3.47
2018-08-07T16:27:49.224Z,3.10
2018-08-07T16:30:19.987Z,2.70
2018-08-07T16:32:48.119Z,2.90
2018-08-07T16:35:16.715Z,2.90
2018-08-07T16:37:45.009Z,2.70
2018-08-07T16:40:15.011Z,3.20
2018-08-07T16:42:43.180Z,2.90
2018-08-07T16:45:13.509Z,2.57
2018-08-07T16:47:41.749Z,2.77
2018-08-07T16:50:19.807Z,4.00
2018-08-07T16:52:48.792Z,3.77
2018-08-07T16:55:17.088Z,3.50
2018-08-07T16:57:45.296Z,2.97
2018-08-07T17:00:13.923Z,3.47
2018-08-07T17:02:42.336Z,3.53
2018-08-07T17:05:15.456Z,3.10
2018-08-07T17:07:45.775Z,2.97
2018-08-07T17:10:17.265Z,3.10
2018-08-07T17:12:46.132Z,3.63
2018-08-07T17:15:14.539Z,3.23
2018-08-07T17:17:44.044Z,3.10
2018-08-07T17:20:13.948Z,3.23
2018-08-07T17:22:42.639Z,3.00
2018-08-07T17:25:12.944Z,3.30
2018-08-07T17:27:41.277Z,3.33
2018-08-07T17:30:14.307Z,3.70
2018-08-07T17:32:45.753Z,3.90
2018-08-07T17:35:16.607Z,3.27
2018-08-07T17:37:44.903Z,3.43
2018-08-07T17:40:14.390Z,3.37
2018-08-07T17:42:42.658Z,3.43
2018-08-07T17:45:11.848Z,2.80
2018-08-07T17:47:40.069Z,3.80
2018-08-07T17:50:11.788Z,3.63
2018-08-07T17:52:40.074Z,3.97
2018-08-07T17:55:08.899Z,3.33
2018-08-07T17:57:37.335Z,3.73
2018-08-07T18:00:09.560Z,3.20
2018-08-07T18:02:37.755Z,3.30
2018-08-07T18:05:06.589Z,3.43
2018-08-07T18:07:34.759Z,3.63
2018-08-07T18:10:03.027Z,4.33
2018-08-07T18:12:31.269Z,3.73
2018-08-07T18:14:59.483Z,4.40
2018-08-07T18:17:27.666Z,3.40
2018-08-07T18:19:55.897Z,3.67
2018-08-07T18:22:24.111Z,3.67
2018-08-07T18:24:52.332Z,4.10
2018-08-07T18:27:20.548Z,3.73
2018-08-07T18:29:48.890Z,4.20
2018-08-07T18:32:17.132Z,3.77
2018-08-07T18:34:45.319Z,4.20
2018-08-07T18:37:13.553Z,4.23
2018-08-07T18:39:41.736Z,3.87
2018-08-07T18:42:09.904Z,3.53
2018-08-07T18:44:38.160Z,4.60
2018-08-07T18:47:06.476Z,3.70
2018-08-07T18:49:34.658Z,4.03
2018-08-07T18:52:02.871Z,3.40
2018-08-07T18:54:31.076Z,3.77
2018-08-07T18:56:59.459Z,4.67
2018-08-07T18:59:27.648Z,3.97
2018-08-07T19:01:55.877Z,3.80
2018-08-07T19:04:24.062Z,3.73
2018-08-07T19:06:52.355Z,4.20
2018-08-07T19:09:20.540Z,4.10
2018-08-07T19:11:48.719Z,3.90
2018-08-07T19:14:16.925Z,3.80
2018-08-07T19:16:45.148Z,3.60
2018-08-07T19:19:13.334Z,4.43
2018-08-07T19:21:41.815Z,3.37
2018-08-07T19:24:10.060Z,3.93
2018-08-07T19:26:38.304Z,4.00
2018-08-07T19:29:06.517Z,4.77
2018-08-07T19:31:34.828Z,4.17
2018-08-07T19:34:03.017Z,4.20
2018-08-07T19:36:31.368Z,3.90
2018-08-07T19:38:59.557Z,4.43
2018-08-07T19:41:27.759Z,3.90
2018-08-07T19:43:55.959Z,3.90
2018-08-07T19:46:24.252Z,4.37
2018-08-07T19:48:52.456Z,4.10
2018-08-07T19:51:20.651Z,3.50
2018-08-07T19:53:48.835Z,4.00
2018-08-07T19:56:17.031Z,4.40
2018-08-07T19:58:45.259Z,4.07
2018-08-07T20:01:13.497Z,3.93
2018-08-07T20:03:41.788Z,3.40
2018-08-07T20:06:10.048Z,3.40
2018-08-07T20:08:39.159Z,4.13
2018-08-07T20:11:08.436Z,3.60
2018-08-07T20:13:36.648Z,3.67
2018-08-07T20:16:05.669Z,4.20
2018-08-07T20:18:33.872Z,5.27
2018-08-07T20:21:02.056Z,5.20
2018-08-07T20:23:30.328Z,6.17
2018-08-07T20:25:58.644Z,5.27
2018-08-07T20:28:26.830Z,4.90
2018-08-07T20:30:55.079Z,5.13
2018-08-07T20:33:23.224Z,4.90
2018-08-07T20:35:52.540Z,5.47
2018-08-07T20:38:20.720Z,5.23
2018-08-07T20:40:48.924Z,3.70
2018-08-07T20:43:17.123Z,4.00
2018-08-07T20:45:45.435Z,3.80
2018-08-07T20:48:13.628Z,4.00
2018-08-07T20:50:41.847Z,4.70
2018-08-07T20:53:10.055Z,4.20
2018-08-07T20:55:38.871Z,4.33
2018-08-07T20:58:07.099Z,3.60
2018-08-07T21:00:35.272Z,5.20
2018-08-07T21:03:03.467Z,3.90
2018-08-07T21:05:31.740Z,3.80
2018-08-07T21:07:59.952Z,3.93
2018-08-07T21:10:28.899Z,4.10
2018-08-07T21:12:57.233Z,3.80
2018-08-07T21:15:25.529Z,3.77
2018-08-07T21:17:53.728Z,4.53
2018-08-07T21:20:23.209Z,4.20
2018-08-07T21:22:51.519Z,3.70
2018-08-07T21:25:21.477Z,4.10
2018-08-07T21:27:52.541Z,4.50
2018-08-07T21:30:23.457Z,4.03
2018-08-07T21:32:51.688Z,3.37
2018-08-07T21:35:19.960Z,3.73
2018-08-07T21:37:48.268Z,4.00
2018-08-07T21:40:18.839Z,3.90
2018-08-07T21:42:47.502Z,4.67
2018-08-07T21:45:15.879Z,3.70
2018-08-07T21:47:44.195Z,3.87
2018-08-07T21:50:13.967Z,3.90
2018-08-07T21:52:42.187Z,3.80
2018-08-07T21:55:11.966Z,3.63
2018-08-07T21:57:40.338Z,3.70
2018-08-07T22:00:13.556Z,3.57
2018-08-07T22:02:42.117Z,5.17
2018-08-07T22:05:10.630Z,4.47
2018-08-07T22:07:39.193Z,4.37
2018-08-07T22:10:12.263Z,3.87
2018-08-07T22:12:40.467Z,4.20
2018-08-07T22:15:08.855Z,4.30
2018-08-07T22:17:38.317Z,4.90
2018-08-07T22:20:07.258Z,4.97
2018-08-07T22:22:35.600Z,5.20
2018-08-07T22:25:04.479Z,5.53
2018-08-07T22:27:32.659Z,4.47
2018-08-07T22:30:00.887Z,4.80
2018-08-07T22:32:29.069Z,5.27
2018-08-07T22:34:57.328Z,4.83
2018-08-07T22:37:25.520Z,5.27
2018-08-07T22:39:53.727Z,4.40
2018-08-07T22:42:21.921Z,4.70
2018-08-07T22:44:50.212Z,4.43
2018-08-07T22:47:18.412Z,4.10
2018-08-07T22:49:46.580Z,5.77
2018-08-07T22:52:14.749Z,4.87
2018-08-07T22:54:42.939Z,5.20
2018-08-07T22:57:11.154Z,5.00
2018-08-07T22:59:39.358Z,4.67
2018-08-07T23:02:07.535Z,4.80
2018-08-07T23:04:35.735Z,4.40
2018-08-07T23:07:03.962Z,4.80
2018-08-07T23:09:32.132Z,4.40
2018-08-07T23:12:00.315Z,4.70
2018-08-07T23:14:28.510Z,5.83
2018-08-07T23:16:56.763Z,5.50
2018-08-07T23:19:24.956Z,5.27
2018-08-07T23:21:53.148Z,5.60
2018-08-07T23:24:21.349Z,5.47
2018-08-07T23:26:49.567Z,5.20
2018-08-07T23:29:17.738Z,5.67
2018-08-07T23:31:45.908Z,6.33
2018-08-07T23:34:14.104Z,4.60
2018-08-07T23:36:42.427Z,6.10
2018-08-07T23:39:11.227Z,5.30
2018-08-07T23:41:39.448Z,4.87
2018-08-07T23:44:07.643Z,5.40
2018-08-07T23:46:35.875Z,5.90
2018-08-07T23:49:04.102Z,5.00
2018-08-07T23:51:32.251Z,5.50
2018-08-07T23:54:00.464Z,5.60
2018-08-07T23:56:28.661Z,6.20
2018-08-07T23:58:56.816Z,5.10
